Time;durP1;ratioP1;P1;durP2;ratioP2;P2;SDS_P1;SDS_P2;PMS_P1;PMS_P2;Temp;Humidity;BMP_temperature;BMP_pressure;BME280_temperature;BME280_humidity;BME280_pressure;Samples;Min_cycle;Max_cycle;Signal;HPM_P1;HPM_P2
2022/12/19 00:01:59;;;;;;;32.88;19.15;;;0.80;99.90;;;;;;5090211;28;20470;-68
2022/12/19 00:04:24;;;;;;;35.42;21.00;;;0.80;99.90;;;;;;5091124;28;20048;-68
2022/12/19 00:06:50;;;;;;;39.03;21.83;;;0.80;99.90;;;;;;5090632;28;20035;-68
2022/12/19 00:09:16;;;;;;;36.63;19.63;;;0.80;99.90;;;;;;5091270;28;20073;-68
2022/12/19 00:11:41;;;;;;;35.15;20.77;;;0.80;99.90;;;;;;5090947;28;20036;-68
2022/12/19 00:14:10;;;;;;;36.97;21.52;;;0.90;99.90;;;;;;5090605;28;20367;-67
2022/12/19 00:16:35;;;;;;;37.13;21.25;;;0.90;99.90;;;;;;5125368;28;20044;-67
2022/12/19 00:19:02;;;;;;;36.13;20.02;;;0.90;99.90;;;;;;5090552;28;20111;-68
2022/12/19 00:21:30;;;;;;;38.80;21.20;;;0.90;99.90;;;;;;5091007;28;20123;-68
2022/12/19 00:23:57;;;;;;;40.83;21.35;;;0.90;99.90;;;;;;5089870;28;20040;-67
2022/12/19 00:26:28;;;;;;;38.15;20.50;;;0.90;99.90;;;;;;5091402;28;20517;-68
2022/12/19 00:28:57;;;;;;;36.53;21.02;;;0.90;99.90;;;;;;5092933;28;20055;-68
2022/12/19 00:31:23;;;;;;;37.60;20.42;;;0.90;99.90;;;;;;5092692;28;20126;-67
2022/12/19 00:33:49;;;;;;;36.35;21.10;;;1.00;99.90;;;;;;5093977;28;20130;-68
2022/12/19 00:36:18;;;;;;;36.92;20.75;;;1.00;99.90;;;;;;5095280;28;20131;-67
2022/12/19 00:38:44;;;;;;;36.63;19.73;;;1.00;99.90;;;;;;5129010;27;20043;-67
2022/12/19 00:41:25;;;;;;;33.60;18.92;;;1.00;99.90;;;;;;5094767;28;20039;-68
2022/12/19 00:43:55;;;;;;;36.58;20.63;;;1.00;99.90;;;;;;5094696;28;20375;-67
2022/12/19 00:46:21;;;;;;;33.00;17.45;;;1.10;99.90;;;;;;5093436;28;20096;-68
2022/12/19 00:48:47;;;;;;;35.30;21.27;;;1.10;99.90;;;;;;5094688;28;20036;-68
2022/12/19 00:51:14;;;;;;;39.45;21.95;;;1.10;99.90;;;;;;5077847;28;20063;-68
2022/12/19 00:53:42;;;;;;;37.35;19.77;;;1.10;99.90;;;;;;5128898;27;20392;-66
2022/12/19 00:56:11;;;;;;;35.80;20.40;;;1.10;99.90;;;;;;5112480;28;20122;-66
2022/12/19 00:58:37;;;;;;;36.38;19.73;;;1.10;99.90;;;;;;5094692;28;20082;-65
2022/12/19 01:01:07;;;;;;;38.03;20.90;;;1.10;99.90;;;;;;5112781;28;20074;-69
2022/12/19 01:03:33;;;;;;;39.38;21.85;;;1.20;99.90;;;;;;5094230;28;20040;-68
2022/12/19 01:05:59;;;;;;;40.75;21.73;;;1.10;99.90;;;;;;5094153;28;20421;-67
2022/12/19 01:08:24;;;;;;;36.45;20.50;;;1.20;99.90;;;;;;5094218;28;20382;-68
2022/12/19 01:10:50;;;;;;;35.72;20.33;;;1.20;99.90;;;;;;5094411;28;20082;-67
2022/12/19 01:13:20;;;;;;;36.38;19.92;;;1.20;99.90;;;;;;5094336;28;20108;-68
2022/12/19 01:15:46;;;;;;;38.33;20.17;;;1.20;99.90;;;;;;5093770;28;20109;-67
2022/12/19 01:18:11;;;;;;;35.35;19.13;;;1.20;99.90;;;;;;5094279;28;20052;-68
2022/12/19 01:20:39;;;;;;;37.85;21.55;;;1.20;99.90;;;;;;5093938;28;20067;-69
2022/12/19 01:23:06;;;;;;;36.95;21.13;;;1.20;99.90;;;;;;5094141;28;20038;-68
2022/12/19 01:25:33;;;;;;;34.25;20.20;;;1.20;99.90;;;;;;5093706;28;20090;-68
2022/12/19 01:27:59;;;;;;;35.22;21.05;;;1.30;99.90;;;;;;5093756;28;21464;-67
2022/12/19 01:30:25;;;;;;;35.97;20.48;;;1.30;99.90;;;;;;5093803;28;20085;-68
2022/12/19 01:32:51;;;;;;;36.33;20.13;;;1.30;99.90;;;;;;5094336;28;20512;-68
2022/12/19 01:35:16;;;;;;;32.78;17.02;;;1.30;99.90;;;;;;5093846;28;20031;-67
2022/12/19 01:37:42;;;;;;;35.72;18.83;;;1.40;99.90;;;;;;5093431;28;20039;-67
2022/12/19 01:40:11;;;;;;;37.83;21.35;;;1.40;99.90;;;;;;5076825;28;20065;-67
2022/12/19 01:42:36;;;;;;;38.78;20.55;;;1.40;99.90;;;;;;5093503;28;20051;-67
2022/12/19 01:45:08;;;;;;;41.70;20.65;;;1.40;99.90;;;;;;5093678;28;20044;-68
2022/12/19 01:47:59;;;;;;;35.67;18.47;;;1.40;99.90;;;;;;5092819;28;20112;-67
2022/12/19 01:50:53;;;;;;;39.70;20.38;;;1.50;99.90;;;;;;5073113;28;20784;-67
2022/12/19 01:53:21;;;;;;;37.35;20.30;;;1.50;99.90;;;;;;5093245;28;20071;-68
2022/12/19 01:55:47;;;;;;;35.17;19.83;;;1.40;99.90;;;;;;5092988;28;20039;-67
2022/12/19 01:58:13;;;;;;;37.10;21.17;;;1.40;99.90;;;;;;5075911;28;20048;-68
2022/12/19 02:00:43;;;;;;;35.33;20.33;;;1.50;99.90;;;;;;5092740;28;20043;-67
2022/12/19 02:03:13;;;;;;;39.40;21.85;;;1.40;99.90;;;;;;5093070;28;20035;-67
2022/12/19 02:05:40;;;;;;;41.78;21.95;;;1.40;99.90;;;;;;5093233;28;20031;-67
2022/12/19 02:08:06;;;;;;;42.00;22.17;;;1.40;99.90;;;;;;5092885;28;20572;-67
2022/12/19 02:10:32;;;;;;;40.08;20.65;;;1.40;99.90;;;;;;5091666;28;20413;-67
2022/12/19 02:12:58;;;;;;;37.60;20.48;;;1.40;99.90;;;;;;5075935;28;20050;-68
2022/12/19 02:15:26;;;;;;;36.85;19.20;;;1.40;99.90;;;;;;5093130;28;20043;-68
2022/12/19 02:17:56;;;;;;;37.38;21.42;;;1.40;99.90;;;;;;5126658;27;20119;-68
2022/12/19 02:20:44;;;;;;;40.33;21.02;;;1.40;99.90;;;;;;5091801;28;20058;-68
2022/12/19 02:23:56;;;;;;;40.70;21.48;;;1.40;99.90;;;;;;5092363;28;20074;-67
2022/12/19 02:26:43;;;;;;;38.22;23.08;;;1.40;99.90;;;;;;5091764;28;20039;-68
2022/12/19 02:29:27;;;;;;;38.10;20.98;;;1.40;99.90;;;;;;5075737;28;20509;-65
2022/12/19 02:32:09;;;;;;;37.50;21.90;;;1.40;99.90;;;;;;5092766;28;20082;-65
2022/12/19 02:34:46;;;;;;;39.40;22.20;;;1.40;99.90;;;;;;5092932;28;20047;-66
2022/12/19 02:37:31;;;;;;;39.72;22.45;;;1.40;99.90;;;;;;5092630;28;20510;-66
2022/12/19 02:40:23;;;;;;;40.58;22.08;;;1.40;99.90;;;;;;5092659;28;20036;-65
2022/12/19 02:42:57;;;;;;;40.15;22.27;;;1.40;99.90;;;;;;5031178;28;20127;-66
2022/12/19 02:45:26;;;;;;;42.63;21.35;;;1.40;99.90;;;;;;5031030;28;20053;-65
2022/12/19 02:47:52;;;;;;;39.50;22.63;;;1.50;99.90;;;;;;5031282;28;20105;-65
2022/12/19 02:50:18;;;;;;;38.35;22.75;;;1.50;99.90;;;;;;5030768;28;20037;-66
2022/12/19 02:52:46;;;;;;;41.40;22.70;;;1.50;99.90;;;;;;5030199;28;20037;-66
2022/12/19 02:55:17;;;;;;;43.00;23.58;;;1.50;99.90;;;;;;5030606;28;20464;-65
2022/12/19 02:58:11;;;;;;;38.20;21.30;;;1.60;99.90;;;;;;5031272;28;20076;-66
2022/12/19 03:00:50;;;;;;;39.90;23.45;;;1.60;99.90;;;;;;5031043;28;20048;-65
2022/12/19 03:03:50;;;;;;;39.80;23.00;;;1.70;99.90;;;;;;5030654;28;20076;-66
2022/12/19 03:06:31;;;;;;;43.85;23.42;;;1.70;99.90;;;;;;5030343;28;20041;-65
2022/12/19 03:09:17;;;;;;;38.78;22.42;;;1.70;99.90;;;;;;5030802;28;20169;-65
2022/12/19 03:11:45;;;;;;;41.75;23.20;;;1.80;99.90;;;;;;5031227;28;20507;-65
2022/12/19 03:14:14;;;;;;;41.17;23.20;;;1.80;99.90;;;;;;5030382;28;20097;-65
2022/12/19 03:16:40;;;;;;;41.50;23.30;;;1.80;99.90;;;;;;5014131;28;20044;-65
2022/12/19 03:19:12;;;;;;;41.25;23.42;;;1.80;99.90;;;;;;5059392;28;20494;-65
2022/12/19 03:21:42;;;;;;;44.80;24.80;;;1.90;99.90;;;;;;5125918;27;20047;-65
2022/12/19 03:24:10;;;;;;;41.60;24.02;;;1.90;99.90;;;;;;5091665;28;20410;-65
2022/12/19 03:27:02;;;;;;;46.38;25.88;;;1.90;99.90;;;;;;5092077;28;20123;-66
2022/12/19 03:29:37;;;;;;;44.65;24.23;;;1.90;99.90;;;;;;5074559;28;20054;-65
2022/12/19 03:32:06;;;;;;;45.30;25.90;;;2.00;99.90;;;;;;5092153;28;20402;-66
2022/12/19 03:34:43;;;;;;;44.10;25.02;;;2.00;99.90;;;;;;5091254;28;20107;-65
2022/12/19 03:37:14;;;;;;;44.30;25.02;;;2.00;99.90;;;;;;5091734;28;20050;-66
2022/12/19 03:39:42;;;;;;;48.70;26.13;;;2.10;99.90;;;;;;5091410;28;20040;-65
2022/12/19 03:44:56;;;;;;;47.22;26.67;;;2.10;99.90;;;;;;5090636;28;20122;-66
2022/12/19 03:47:35;;;;;;;45.67;25.42;;;2.10;99.90;;;;;;5125206;27;20108;-65
2022/12/19 03:50:01;;;;;;;46.97;26.80;;;2.10;99.90;;;;;;5091161;28;20370;-65
2022/12/19 03:52:56;;;;;;;50.35;27.23;;;2.10;99.90;;;;;;5125447;28;20043;-65
2022/12/19 03:55:56;;;;;;;48.80;27.88;;;2.20;99.90;;;;;;4993668;28;20056;-65
2022/12/19 03:58:34;;;;;;;52.85;26.70;;;2.20;99.90;;;;;;4986638;28;20053;-65
2022/12/19 04:01:01;;;;;;;53.35;27.77;;;2.20;99.90;;;;;;4992830;28;20088;-65
2022/12/19 04:03:28;;;;;;;49.05;27.65;;;2.30;99.90;;;;;;5012844;28;20052;-66
2022/12/19 04:05:55;;;;;;;52.03;28.95;;;2.20;99.90;;;;;;5013383;28;20053;-65
2022/12/19 04:08:22;;;;;;;48.78;28.00;;;2.30;99.90;;;;;;5014465;28;20572;-66
2022/12/19 04:10:56;;;;;;;54.80;28.65;;;2.30;99.90;;;;;;5013968;28;20392;-65
2022/12/19 04:13:50;;;;;;;50.90;27.20;;;2.30;99.90;;;;;;5014017;28;20049;-65
2022/12/19 04:16:19;;;;;;;46.05;26.38;;;2.30;99.90;;;;;;5012272;28;20046;-65
2022/12/19 04:18:50;;;;;;;48.03;27.50;;;2.30;99.90;;;;;;5047177;28;20099;-65
2022/12/19 04:21:28;;;;;;;44.03;25.67;;;2.40;99.90;;;;;;5046267;28;20037;-66
2022/12/19 04:24:01;;;;;;;47.05;25.48;;;2.40;99.90;;;;;;4997020;28;20054;-65
2022/12/19 04:26:30;;;;;;;47.22;27.73;;;2.50;99.90;;;;;;5014171;28;20520;-65
2022/12/19 04:29:01;;;;;;;45.25;26.42;;;2.50;99.90;;;;;;5013685;28;20056;-65
2022/12/19 04:31:26;;;;;;;47.17;27.52;;;2.50;99.90;;;;;;5044111;28;20050;-65
2022/12/19 04:33:52;;;;;;;46.00;25.83;;;2.50;99.90;;;;;;5113352;28;20035;-65
2022/12/19 04:36:18;;;;;;;45.10;25.70;;;2.50;99.90;;;;;;5077619;28;20051;-65
2022/12/19 04:38:44;;;;;;;46.17;25.35;;;2.50;99.90;;;;;;5094938;28;20549;-65
2022/12/19 04:41:09;;;;;;;48.28;24.73;;;2.60;99.90;;;;;;5094792;28;20093;-65
2022/12/19 04:43:35;;;;;;;46.22;25.85;;;2.60;99.90;;;;;;5113216;28;20440;-65
2022/12/19 04:46:01;;;;;;;46.47;25.20;;;2.60;99.90;;;;;;5077935;28;20056;-65
2022/12/19 04:48:26;;;;;;;45.78;25.75;;;2.70;99.90;;;;;;5077507;28;20155;-65
2022/12/19 04:50:52;;;;;;;42.90;25.10;;;2.70;99.90;;;;;;5095057;28;20046;-65
2022/12/19 04:53:17;;;;;;;44.92;26.00;;;2.70;99.90;;;;;;5094033;28;20044;-66
2022/12/19 04:55:43;;;;;;;46.30;25.48;;;2.70;99.90;;;;;;5094884;28;20036;-66
2022/12/19 04:58:09;;;;;;;42.80;25.48;;;2.70;99.90;;;;;;5094626;28;20521;-65
2022/12/19 05:00:34;;;;;;;45.03;26.45;;;2.70;99.90;;;;;;5094193;28;20401;-66
2022/12/19 05:03:00;;;;;;;44.28;24.45;;;2.70;99.90;;;;;;5094622;28;20032;-66
2022/12/19 05:05:26;;;;;;;44.15;24.15;;;2.80;99.90;;;;;;5094227;28;20115;-65
2022/12/19 05:07:51;;;;;;;46.42;26.20;;;2.80;99.90;;;;;;5094440;28;20040;-66
2022/12/19 05:10:17;;;;;;;42.70;24.48;;;2.80;99.90;;;;;;5093984;28;20035;-67
2022/12/19 05:12:43;;;;;;;45.05;25.73;;;2.80;99.90;;;;;;5094344;28;20118;-66
2022/12/19 05:15:09;;;;;;;44.42;25.27;;;2.80;99.90;;;;;;5093710;28;20043;-66
2022/12/19 05:17:35;;;;;;;44.72;25.45;;;2.80;99.90;;;;;;5128477;27;20047;-67
2022/12/19 05:20:00;;;;;;;44.72;24.70;;;2.90;99.90;;;;;;5094227;28;20146;-66
2022/12/19 05:22:26;;;;;;;43.45;24.50;;;2.90;99.90;;;;;;5127550;27;20051;-66
2022/12/19 05:24:52;;;;;;;45.50;25.00;;;2.90;99.90;;;;;;5093969;28;20541;-66
2022/12/19 05:27:17;;;;;;;43.10;24.15;;;2.90;99.90;;;;;;5094153;28;20031;-66
2022/12/19 05:29:43;;;;;;;40.97;24.13;;;3.00;99.90;;;;;;5094273;28;20043;-66
2022/12/19 05:32:09;;;;;;;42.85;25.20;;;3.00;99.90;;;;;;5093700;28;20023;-66
2022/12/19 05:34:34;;;;;;;41.80;23.45;;;3.00;99.90;;;;;;5091774;28;20093;-67
2022/12/19 05:37:02;;;;;;;39.75;22.75;;;3.00;99.90;;;;;;5093103;28;20057;-67
2022/12/19 05:39:28;;;;;;;36.30;21.90;;;3.00;99.90;;;;;;5127519;27;20071;-66
2022/12/19 05:41:53;;;;;;;35.95;22.00;;;3.10;99.90;;;;;;5092259;28;20067;-66
2022/12/19 05:44:19;;;;;;;37.67;21.90;;;3.10;99.90;;;;;;5076403;28;20056;-66
2022/12/19 05:46:45;;;;;;;36.13;22.38;;;3.10;99.90;;;;;;5093476;28;20088;-67
2022/12/19 05:49:10;;;;;;;36.13;21.25;;;3.10;99.90;;;;;;5093288;28;20039;-66
2022/12/19 05:51:36;;;;;;;32.83;20.77;;;3.10;99.90;;;;;;5093634;28;20111;-67
2022/12/19 05:54:02;;;;;;;31.40;19.92;;;3.20;99.90;;;;;;5091235;28;20044;-67
2022/12/19 05:56:28;;;;;;;32.55;19.67;;;3.20;99.90;;;;;;5127371;27;20035;-66
2022/12/19 05:58:54;;;;;;;32.70;20.10;;;3.20;99.90;;;;;;5076554;28;20108;-67
2022/12/19 06:01:22;;;;;;;36.15;19.98;;;3.20;99.90;;;;;;5075980;28;20126;-66
2022/12/19 06:03:48;;;;;;;30.92;20.02;;;3.20;99.90;;;;;;5091560;28;20044;-66
2022/12/19 06:06:20;;;;;;;31.33;19.90;;;3.30;99.90;;;;;;5075828;28;20069;-66
2022/12/19 06:08:46;;;;;;;31.33;19.63;;;3.30;99.90;;;;;;5093425;28;20111;-66
2022/12/19 06:11:13;;;;;;;32.88;19.73;;;3.30;99.90;;;;;;5093143;28;20123;-66
2022/12/19 06:13:39;;;;;;;33.15;20.77;;;3.30;99.90;;;;;;5093288;28;20472;-66
2022/12/19 06:16:09;;;;;;;32.47;20.52;;;3.40;99.90;;;;;;5092513;28;20486;-66
2022/12/19 06:18:35;;;;;;;31.17;19.50;;;3.40;99.90;;;;;;5093000;28;20143;-67
2022/12/19 06:21:03;;;;;;;33.33;19.75;;;3.40;99.90;;;;;;5076059;28;20040;-67
2022/12/19 06:23:32;;;;;;;30.45;18.88;;;3.40;99.90;;;;;;5092741;28;20058;-67
2022/12/19 06:25:59;;;;;;;29.38;19.40;;;3.40;99.90;;;;;;5091691;28;20118;-66
2022/12/19 06:28:26;;;;;;;29.55;18.65;;;3.40;99.90;;;;;;5075636;28;20027;-66
2022/12/19 06:30:55;;;;;;;28.85;17.60;;;3.40;99.90;;;;;;5076069;28;20047;-67
2022/12/19 06:33:21;;;;;;;31.20;18.85;;;3.40;99.90;;;;;;5092901;28;20435;-66
2022/12/19 06:35:46;;;;;;;31.17;19.17;;;3.50;99.90;;;;;;5093126;28;20114;-66
2022/12/19 06:38:12;;;;;;;27.13;17.70;;;3.50;99.90;;;;;;5092669;28;20059;-67
2022/12/19 06:43:28;;;;;;;27.33;17.35;;;3.50;99.90;;;;;;5092225;28;20398;-66
2022/12/19 06:45:56;;;;;;;28.42;18.52;;;3.60;99.90;;;;;;5091509;28;20039;-66
2022/12/19 06:48:22;;;;;;;27.80;18.13;;;3.60;99.90;;;;;;5092155;28;20031;-66
2022/12/19 06:50:48;;;;;;;27.13;17.55;;;3.60;99.90;;;;;;5092867;28;20035;-66
2022/12/19 06:53:13;;;;;;;32.88;19.15;;;3.60;99.90;;;;;;5092583;28;20044;-66
2022/12/19 06:55:39;;;;;;;27.77;16.80;;;3.60;99.90;;;;;;5110381;28;20044;-68
2022/12/19 06:58:05;;;;;;;23.70;16.52;;;3.70;99.90;;;;;;5075338;28;20043;-68
2022/12/19 07:00:34;;;;;;;25.48;17.38;;;3.70;99.90;;;;;;5092615;28;20482;-67
2022/12/19 07:03:01;;;;;;;26.77;16.77;;;3.80;99.90;;;;;;5092216;28;20040;-67
2022/12/19 07:05:28;;;;;;;25.90;15.23;;;3.80;99.90;;;;;;5075153;28;20081;-67
2022/12/19 07:07:53;;;;;;;23.55;16.13;;;3.80;99.90;;;;;;5091909;28;20031;-68
2022/12/19 07:10:19;;;;;;;26.95;17.02;;;3.90;99.90;;;;;;5092168;28;20036;-66
2022/12/19 07:12:44;;;;;;;24.52;16.67;;;3.90;99.90;;;;;;5091882;28;20116;-67
2022/12/19 07:15:11;;;;;;;24.52;15.68;;;4.00;99.90;;;;;;5092498;28;20079;-67
2022/12/19 07:17:37;;;;;;;24.58;16.98;;;4.00;99.90;;;;;;5092267;28;20494;-67
2022/12/19 07:20:03;;;;;;;27.75;17.80;;;4.00;99.90;;;;;;5091070;28;20070;-67
2022/12/19 07:22:33;;;;;;;25.38;17.27;;;4.00;99.90;;;;;;5092070;28;20042;-67
2022/12/19 07:24:59;;;;;;;22.40;15.48;;;4.00;99.90;;;;;;5088437;28;20123;-67
2022/12/19 07:27:27;;;;;;;26.23;16.48;;;4.10;99.90;;;;;;5091492;28;20039;-67
2022/12/19 07:29:53;;;;;;;24.60;16.30;;;4.10;99.90;;;;;;5124610;27;20093;-67
2022/12/19 07:32:18;;;;;;;21.80;15.45;;;4.10;99.90;;;;;;5125905;27;20043;-67
2022/12/19 07:34:44;;;;;;;24.50;15.93;;;4.10;99.90;;;;;;5090472;28;20044;-67
2022/12/19 07:37:10;;;;;;;20.48;15.02;;;4.20;99.90;;;;;;5091088;28;20036;-67
2022/12/19 07:39:35;;;;;;;19.95;14.15;;;4.20;99.90;;;;;;5091588;28;20046;-66
2022/12/19 07:42:01;;;;;;;21.45;14.65;;;4.20;99.90;;;;;;5091275;28;20075;-67
2022/12/19 07:44:26;;;;;;;21.95;14.95;;;4.30;99.90;;;;;;5090525;28;20039;-67
2022/12/19 07:46:52;;;;;;;21.05;15.15;;;4.30;99.90;;;;;;5090858;28;20465;-67
2022/12/19 07:49:18;;;;;;;19.40;13.90;;;4.30;99.90;;;;;;5091000;28;20047;-67
2022/12/19 07:51:43;;;;;;;18.48;13.30;;;4.40;99.90;;;;;;5091334;28;20035;-67
2022/12/19 07:54:09;;;;;;;19.60;13.73;;;4.40;99.90;;;;;;5091522;28;20074;-67
2022/12/19 07:56:34;;;;;;;19.92;13.40;;;4.50;99.90;;;;;;5091640;28;20027;-67
2022/12/19 07:59:00;;;;;;;19.90;14.52;;;4.50;99.90;;;;;;5091253;28;20035;-67
2022/12/19 08:01:26;;;;;;;19.42;13.75;;;4.50;99.90;;;;;;5090941;28;20035;-67
2022/12/19 08:03:54;;;;;;;19.20;13.80;;;4.50;99.90;;;;;;5091679;28;20081;-67
2022/12/19 08:06:20;;;;;;;21.85;14.65;;;4.60;99.90;;;;;;5091466;28;20110;-67
2022/12/19 08:08:45;;;;;;;18.55;13.23;;;4.60;99.90;;;;;;5089811;28;20537;-67
2022/12/19 08:11:16;;;;;;;18.25;13.32;;;4.60;99.90;;;;;;5109231;28;20023;-67
2022/12/19 08:13:41;;;;;;;18.65;12.63;;;4.70;99.90;;;;;;5091570;28;20035;-67
2022/12/19 08:16:07;;;;;;;18.55;13.38;;;4.70;99.90;;;;;;5090950;28;20043;-67
2022/12/19 08:18:33;;;;;;;17.67;13.57;;;4.70;99.90;;;;;;5107111;28;20052;-68
2022/12/19 08:20:58;;;;;;;19.63;14.10;;;4.80;99.90;;;;;;5088041;28;20383;-67
2022/12/19 08:23:24;;;;;;;16.33;11.52;;;4.80;99.90;;;;;;5091020;28;20154;-67
2022/12/19 08:26:09;;;;;;;19.02;13.00;;;4.90;99.90;;;;;;5073899;28;20043;-67
2022/12/19 08:28:35;;;;;;;18.00;13.43;;;4.90;99.90;;;;;;5091152;28;20063;-67
2022/12/19 08:31:13;;;;;;;21.25;14.15;;;5.00;99.90;;;;;;5091224;28;20431;-67
2022/12/19 08:33:39;;;;;;;16.50;12.65;;;5.00;99.90;;;;;;5090979;28;20390;-67
2022/12/19 08:36:11;;;;;;;18.02;13.57;;;5.00;99.90;;;;;;5090749;28;20038;-67
2022/12/19 08:38:38;;;;;;;19.07;13.83;;;5.10;99.90;;;;;;5125072;28;20057;-67
2022/12/19 08:41:04;;;;;;;19.80;14.73;;;5.10;99.90;;;;;;5091188;28;20038;-68
2022/12/19 08:43:30;;;;;;;17.33;13.25;;;5.10;99.90;;;;;;5090381;28;20039;-67
2022/12/19 08:45:56;;;;;;;19.08;13.70;;;5.20;99.90;;;;;;5091216;28;20656;-67
2022/12/19 08:48:22;;;;;;;18.27;13.77;;;5.20;99.90;;;;;;5073670;28;20423;-67
2022/12/19 08:50:49;;;;;;;18.98;13.60;;;5.30;99.90;;;;;;5093791;28;20385;-67
2022/12/19 08:53:15;;;;;;;17.98;14.05;;;5.30;99.90;;;;;;5095190;28;20382;-66
2022/12/19 08:55:40;;;;;;;17.08;13.63;;;5.40;99.90;;;;;;5094522;28;20039;-66
2022/12/19 08:58:06;;;;;;;19.70;14.77;;;5.40;99.90;;;;;;5095060;28;20093;-67
2022/12/19 09:00:32;;;;;;;19.20;13.98;;;5.50;99.90;;;;;;5077797;28;20517;-67
2022/12/19 09:02:58;;;;;;;21.52;15.07;;;5.50;99.90;;;;;;5094527;28;20039;-67
2022/12/19 09:05:24;;;;;;;20.20;15.10;;;5.60;99.90;;;;;;5077510;28;20050;-67
2022/12/19 09:07:50;;;;;;;22.88;15.48;;;5.60;99.90;;;;;;5077155;28;20044;-66
2022/12/19 09:10:15;;;;;;;21.60;15.45;;;5.70;99.90;;;;;;5094598;28;20076;-66
2022/12/19 09:12:41;;;;;;;22.67;15.07;;;5.70;99.90;;;;;;5077299;28;20055;-66
2022/12/19 09:15:07;;;;;;;22.35;15.18;;;5.70;99.90;;;;;;5091271;28;20043;-67
2022/12/19 09:17:32;;;;;;;24.70;16.85;;;5.80;99.90;;;;;;5093404;28;20425;-66
2022/12/19 09:19:58;;;;;;;22.73;15.48;;;5.90;99.90;;;;;;5094080;28;20418;-67
2022/12/19 09:22:24;;;;;;;21.85;15.18;;;5.90;99.90;;;;;;5078663;28;20055;-67
2022/12/19 09:24:49;;;;;;;22.05;14.88;;;6.00;99.90;;;;;;5061400;28;20051;-66
2022/12/19 09:27:15;;;;;;;21.13;14.80;;;6.00;99.90;;;;;;5081886;28;20040;-67
2022/12/19 09:29:41;;;;;;;20.88;15.30;;;6.00;99.90;;;;;;5113070;27;20044;-68
2022/12/19 09:32:07;;;;;;;21.08;15.07;;;6.10;99.90;;;;;;5077672;28;20071;-67
2022/12/19 09:34:32;;;;;;;20.77;15.52;;;6.10;99.90;;;;;;5075173;28;20736;-67
2022/12/19 09:36:58;;;;;;;19.73;14.45;;;6.10;99.90;;;;;;5091792;28;20079;-67
2022/12/19 09:39:23;;;;;;;19.65;14.70;;;6.20;99.90;;;;;;5080550;28;20119;-67
2022/12/19 09:42:16;;;;;;;20.85;14.38;;;6.20;99.90;;;;;;5073419;28;20201;-67
2022/12/19 09:44:42;;;;;;;;;;;6.20;99.90;;;;;;5106935;28;20040;-66
2022/12/19 09:47:12;;;;;;;19.77;14.10;;;6.30;99.90;;;;;;5072553;28;19926;-67
2022/12/19 09:49:44;;;;;;;20.13;14.88;;;6.30;99.90;;;;;;5084268;28;20035;-67
2022/12/19 09:52:24;;;;;;;20.38;14.65;;;6.40;99.90;;;;;;5073642;28;20107;-66
2022/12/19 09:55:01;;;;;;;20.10;15.07;;;6.40;99.90;;;;;;5079271;28;20088;-66
2022/12/19 09:57:59;;;;;;;20.92;14.32;;;6.50;99.90;;;;;;5060199;28;20108;-67
2022/12/19 10:00:32;;;;;;;17.42;13.13;;;6.50;99.90;;;;;;5082358;28;20089;-67
2022/12/19 10:03:23;;;;;;;18.73;14.07;;;6.60;99.90;;;;;;5061959;28;20039;-67
2022/12/19 10:06:19;;;;;;;20.80;14.32;;;6.60;99.90;;;;;;5076546;28;20371;-67
2022/12/19 10:08:45;;;;;;;18.52;14.23;;;6.60;99.90;;;;;;5093235;28;20036;-67
2022/12/19 10:11:13;;;;;;;17.70;13.20;;;6.60;99.90;;;;;;5064600;28;20146;-67
2022/12/19 10:14:12;;;;;;;18.52;13.70;;;6.60;99.90;;;;;;5093122;28;20165;-68
2022/12/19 10:17:01;;;;;;;17.77;13.38;;;6.60;99.90;;;;;;5087469;28;20047;-67
2022/12/19 10:20:18;;;;;;;18.80;13.07;;;6.60;99.90;;;;;;5107173;28;20036;-67
2022/12/19 10:23:05;;;;;;;17.02;12.85;;;6.70;99.90;;;;;;5031214;28;20430;-68
2022/12/19 10:25:50;;;;;;;18.30;12.82;;;6.70;99.90;;;;;;5029991;28;20045;-67
2022/12/19 10:28:24;;;;;;;18.15;12.80;;;6.80;99.90;;;;;;5031594;28;20041;-68
2022/12/19 10:31:20;;;;;;;16.15;12.82;;;6.80;99.90;;;;;;5031439;28;20393;-68
2022/12/19 10:34:25;;;;;;;16.25;12.05;;;6.80;99.90;;;;;;5062765;28;20053;-67
2022/12/19 10:36:58;;;;;;;16.77;12.07;;;6.90;99.90;;;;;;5027031;28;20049;-66
2022/12/19 10:39:38;;;;;;;14.38;11.45;;;7.00;99.90;;;;;;5031552;28;20060;-68
2022/12/19 10:42:14;;;;;;;16.55;11.43;;;7.00;99.90;;;;;;5030929;28;20080;-67
2022/12/19 10:44:42;;;;;;;14.50;11.18;;;7.00;99.90;;;;;;5064162;28;20045;-68
2022/12/19 10:47:14;;;;;;;14.10;11.70;;;7.10;99.90;;;;;;5064235;28;20048;-67
2022/12/19 10:49:40;;;;;;;12.82;10.80;;;7.10;99.90;;;;;;5030993;28;20475;-67
2022/12/19 10:52:08;;;;;;;16.30;11.27;;;7.10;99.90;;;;;;5031130;28;20049;-67
2022/12/19 10:54:37;;;;;;;13.65;10.40;;;7.10;99.90;;;;;;5030653;28;20048;-67
2022/12/19 10:57:32;;;;;;;14.93;11.02;;;7.10;99.90;;;;;;5031138;28;20525;-67
2022/12/19 10:59:58;;;;;;;11.32;9.65;;;7.20;99.90;;;;;;5050326;28;20086;-68
2022/12/19 11:02:44;;;;;;;13.80;10.15;;;7.20;99.90;;;;;;5050977;28;20068;-67
2022/12/19 11:05:30;;;;;;;12.75;10.43;;;7.30;99.90;;;;;;5050638;28;20070;-66
2022/12/19 11:08:00;;;;;;;15.05;9.55;;;7.30;99.90;;;;;;5066029;28;20422;-67
2022/12/19 11:10:49;;;;;;;14.98;10.00;;;7.30;99.90;;;;;;5049587;28;20075;-66
2022/12/19 11:13:21;;;;;;;15.00;9.77;;;7.30;99.90;;;;;;5049148;28;20130;-67
2022/12/19 11:15:49;;;;;;;12.60;9.75;;;7.30;99.90;;;;;;5050247;28;20037;-67
2022/12/19 11:18:15;;;;;;;14.65;10.10;;;7.30;99.90;;;;;;5050458;28;20106;-67
2022/12/19 11:20:54;;;;;;;13.68;10.05;;;7.30;99.90;;;;;;5049712;28;20167;-67
2022/12/19 11:23:23;;;;;;;10.65;9.18;;;7.40;99.90;;;;;;5046777;28;20056;-67
2022/12/19 11:25:56;;;;;;;10.35;9.00;;;7.30;99.90;;;;;;5050679;28;20044;-66
2022/12/19 11:28:36;;;;;;;14.90;9.95;;;7.40;99.90;;;;;;5050508;28;20108;-67
2022/12/19 11:31:23;;;;;;;11.85;9.52;;;7.40;99.90;;;;;;5050043;28;20060;-67
2022/12/19 11:34:02;;;;;;;12.52;9.38;;;7.40;99.90;;;;;;5049984;28;20040;-67
2022/12/19 11:37:20;;;;;;;12.23;9.00;;;7.40;99.90;;;;;;5072057;28;20070;-67
2022/12/19 11:40:04;;;;;;;12.15;9.25;;;7.50;99.90;;;;;;5027585;28;20140;-67
2022/12/19 11:42:50;;;;;;;11.35;9.45;;;7.40;99.90;;;;;;5009987;28;20056;-67
2022/12/19 11:45:33;;;;;;;11.07;9.57;;;7.50;99.90;;;;;;5009266;28;20062;-67
2022/12/19 11:48:20;;;;;;;15.13;9.95;;;7.50;99.90;;;;;;5010214;28;20114;-67
2022/12/19 11:51:00;;;;;;;13.40;9.18;;;7.50;99.90;;;;;;5019190;28;20612;-67
2022/12/19 11:53:51;;;;;;;13.50;9.43;;;7.50;99.90;;;;;;5007790;28;20084;-67
2022/12/19 11:56:22;;;;;;;11.13;9.63;;;7.50;99.90;;;;;;5009585;28;20080;-66
2022/12/19 11:58:57;;;;;;;13.30;9.55;;;7.60;99.90;;;;;;5026546;28;20120;-67
2022/12/19 12:01:38;;;;;;;12.07;9.00;;;7.60;99.90;;;;;;5026533;28;20041;-67
2022/12/19 12:04:28;;;;;;;13.00;9.27;;;7.60;99.90;;;;;;5026841;28;20116;-64
2022/12/19 12:06:56;;;;;;;12.07;9.40;;;7.70;99.90;;;;;;5010214;28;20428;-65
2022/12/19 12:09:34;;;;;;;9.77;8.30;;;7.70;99.90;;;;;;5025908;28;20049;-64
2022/12/19 12:12:35;;;;;;;10.80;8.57;;;7.70;99.90;;;;;;5010181;28;20042;-64
2022/12/19 12:15:38;;;;;;;10.65;8.05;;;7.70;99.90;;;;;;5048966;28;20048;-64
2022/12/19 12:18:39;;;;;;;11.18;8.68;;;7.70;99.90;;;;;;5091379;28;20039;-64
2022/12/19 12:21:22;;;;;;;11.45;7.97;;;7.80;99.90;;;;;;5091445;28;20052;-64
2022/12/19 12:24:30;;;;;;;10.68;8.23;;;7.80;99.90;;;;;;5090955;28;20032;-63
2022/12/19 12:27:08;;;;;;;10.68;8.50;;;7.80;99.90;;;;;;4994316;28;20052;-64
2022/12/19 12:29:42;;;;;;;10.57;8.50;;;7.80;99.90;;;;;;5026241;28;20084;-64
2022/12/19 12:32:26;;;;;;;10.77;8.13;;;7.80;99.90;;;;;;4994623;28;20057;-65
2022/12/19 12:34:57;;;;;;;9.48;8.48;;;7.80;99.90;;;;;;4994199;28;20042;-64
2022/12/19 12:37:28;;;;;;;11.30;9.07;;;7.80;99.90;;;;;;4994845;28;20097;-64
2022/12/19 12:40:03;;;;;;;11.63;7.90;;;7.80;99.90;;;;;;4994392;28;20041;-64
2022/12/19 12:43:01;;;;;;;9.93;8.27;;;7.80;99.90;;;;;;4994404;28;20085;-65
2022/12/19 12:45:40;;;;;;;9.43;8.00;;;7.80;99.90;;;;;;5026074;28;20077;-64
2022/12/19 12:48:33;;;;;;;9.48;7.88;;;7.80;99.90;;;;;;4994324;28;20109;-64
2022/12/19 12:51:00;;;;;;;11.68;8.30;;;7.80;99.90;;;;;;4993606;28;20064;-65
2022/12/19 12:53:32;;;;;;;9.52;8.23;;;7.90;99.90;;;;;;5010524;28;20543;-64
2022/12/19 12:55:59;;;;;;;9.75;8.40;;;7.90;99.90;;;;;;5012003;28;20054;-65
2022/12/19 12:59:04;;;;;;;11.40;8.45;;;7.90;99.90;;;;;;4993483;28;20050;-65
2022/12/19 13:01:38;;;;;;;9.90;8.35;;;7.90;99.90;;;;;;4993343;28;20045;-64
2022/12/19 13:04:10;;;;;;;11.95;8.45;;;7.90;99.90;;;;;;5032386;28;20409;-67
2022/12/19 13:06:40;;;;;;;12.33;8.43;;;7.90;99.90;;;;;;5094680;28;20032;-68
2022/12/19 13:09:08;;;;;;;10.23;7.88;;;7.90;99.90;;;;;;5125319;27;20289;-67